createdAt,value
2022-11-25T00:01:41.867Z,91.41
2022-11-25T00:04:10.496Z,88.94
2022-11-25T00:06:39.386Z,87.77
2022-11-25T00:09:12.541Z,82.60
2022-11-25T00:11:43.667Z,83.30
2022-11-25T00:14:16.441Z,82.55
2022-11-25T00:16:48.687Z,83.93
2022-11-25T00:19:18.181Z,84.95
2022-11-25T00:21:47.151Z,90.01
2022-11-25T00:24:17.360Z,94.45
2022-11-25T00:26:46.437Z,92.37
2022-11-25T00:29:16.359Z,95.46
2022-11-25T00:31:45.317Z,95.82
2022-11-25T00:34:15.197Z,97.17
2022-11-25T00:36:44.467Z,92.63
2022-11-25T00:39:15.941Z,92.96
2022-11-25T00:42:03.704Z,95.57
2022-11-25T00:44:37.855Z,97.31
2022-11-25T00:47:10.840Z,88.80
2022-11-25T00:49:41.256Z,93.15
2022-11-25T00:52:14.191Z,89.46
2022-11-25T00:54:44.683Z,92.25
2022-11-25T00:57:14.645Z,97.77
2022-11-25T00:59:44.756Z,99.57
2022-11-25T01:02:16.105Z,94.09
2022-11-25T01:04:46.250Z,95.30
2022-11-25T01:07:18.371Z,98.71
2022-11-25T01:09:47.133Z,99.31
2022-11-25T01:12:16.213Z,89.63
2022-11-25T01:14:46.171Z,88.27
2022-11-25T01:17:16.336Z,94.05
2022-11-25T01:19:44.919Z,96.12
2022-11-25T01:22:13.837Z,93.76
2022-11-25T01:24:44.554Z,91.76
2022-11-25T01:27:13.388Z,93.58
2022-11-25T01:29:45.074Z,94.86
2022-11-25T01:32:15.607Z,93.19
2022-11-25T01:34:44.324Z,96.21
2022-11-25T01:37:13.165Z,99.19
2022-11-25T01:39:41.847Z,96.63
2022-11-25T01:42:10.677Z,97.96
2022-11-25T01:44:42.722Z,100.00
2022-11-25T01:47:19.729Z,88.05
2022-11-25T01:49:56.816Z,89.02
2022-11-25T01:52:31.405Z,93.92
2022-11-25T01:55:06.376Z,95.88
2022-11-25T01:57:44.826Z,92.74
2022-11-25T02:00:15.242Z,91.91
2022-11-25T02:02:50.436Z,90.03
2022-11-25T02:05:23.684Z,93.32
2022-11-25T02:07:55.357Z,97.99
2022-11-25T02:10:29.975Z,100.00
2022-11-25T02:12:59.788Z,100.00
2022-11-25T02:15:32.619Z,100.00
2022-11-25T02:18:03.507Z,98.46
2022-11-25T02:20:32.236Z,93.79
2022-11-25T02:23:12.344Z,93.80
2022-11-25T02:25:44.645Z,96.71
2022-11-25T02:28:20.128Z,98.86
2022-11-25T02:30:50.183Z,100.00
2022-11-25T02:33:20.629Z,100.00
2022-11-25T02:35:54.777Z,100.00
2022-11-25T02:38:37.531Z,100.00
2022-11-25T02:41:13.721Z,100.00
2022-11-25T02:43:43.628Z,100.00
2022-11-25T02:46:21.638Z,100.00
2022-11-25T02:49:09.880Z,100.00
2022-11-25T02:51:43.865Z,100.00
2022-11-25T02:54:14.405Z,100.00
2022-11-25T02:56:44.823Z,100.00
2022-11-25T02:59:14.102Z,100.00
2022-11-25T03:01:42.945Z,100.00
2022-11-25T03:04:12.489Z,89.86
2022-11-25T03:06:41.107Z,90.06
2022-11-25T03:09:10.095Z,85.09
2022-11-25T03:11:58.011Z,87.47
2022-11-25T03:14:28.524Z,94.89
2022-11-25T03:16:57.103Z,96.23
2022-11-25T03:19:28.066Z,99.90
2022-11-25T03:21:56.716Z,100.00
2022-11-25T03:24:25.630Z,100.00
2022-11-25T03:26:54.232Z,100.00
2022-11-25T03:29:23.221Z,100.00
2022-11-25T03:31:53.266Z,100.00
2022-11-25T03:34:22.993Z,100.00
2022-11-25T03:36:51.776Z,99.59
2022-11-25T03:39:20.940Z,93.41
2022-11-25T03:41:49.811Z,98.69
2022-11-25T03:44:19.827Z,100.00
2022-11-25T03:46:48.551Z,100.00
2022-11-25T03:49:18.953Z,100.00
2022-11-25T03:51:47.637Z,100.00
2022-11-25T03:54:19.053Z,100.00
2022-11-25T03:57:10.419Z,100.00
2022-11-25T03:59:39.718Z,100.00
2022-11-25T04:02:08.886Z,100.00
2022-11-25T04:04:39.303Z,100.00
2022-11-25T04:07:08.162Z,100.00
2022-11-25T04:09:37.300Z,100.00
2022-11-25T04:12:26.407Z,100.00
2022-11-25T04:14:59.992Z,95.39
2022-11-25T04:17:28.734Z,92.67
2022-11-25T04:19:59.043Z,95.70
2022-11-25T04:22:27.984Z,100.00
2022-11-25T04:24:58.225Z,100.00
2022-11-25T04:27:28.617Z,100.00
2022-11-25T04:29:57.611Z,100.00
2022-11-25T04:32:27.371Z,99.75
2022-11-25T04:34:58.009Z,100.00
2022-11-25T04:37:27.123Z,100.00
2022-11-25T04:39:56.969Z,100.00
2022-11-25T04:42:34.598Z,100.00
2022-11-25T04:45:25.193Z,100.00
2022-11-25T04:47:56.271Z,100.00
2022-11-25T04:50:26.882Z,100.00
2022-11-25T04:53:10.973Z,100.00
2022-11-25T04:55:41.590Z,100.00
2022-11-25T04:58:36.089Z,100.00
2022-11-25T05:01:05.346Z,100.00
2022-11-25T05:03:34.660Z,98.88
2022-11-25T05:06:09.508Z,98.31
2022-11-25T05:08:39.756Z,98.08
2022-11-25T05:11:08.679Z,100.00
2022-11-25T05:13:37.370Z,100.00
2022-11-25T05:16:07.610Z,100.00
2022-11-25T05:18:37.369Z,100.00
2022-11-25T05:21:08.289Z,99.65
2022-11-25T05:23:41.546Z,100.00
2022-11-25T05:26:10.999Z,100.00
2022-11-25T05:28:45.638Z,100.00
2022-11-25T05:31:14.619Z,100.00
2022-11-25T05:33:43.352Z,100.00
2022-11-25T05:36:14.235Z,100.00
2022-11-25T05:38:49.634Z,100.00
2022-11-25T05:41:27.450Z,100.00
2022-11-25T05:43:56.973Z,100.00
2022-11-25T05:46:25.925Z,100.00
2022-11-25T05:48:58.686Z,100.00
2022-11-25T05:51:31.212Z,100.00
2022-11-25T05:54:01.939Z,100.00
2022-11-25T05:56:33.169Z,100.00
2022-11-25T05:59:22.100Z,100.00
2022-11-25T06:02:05.548Z,100.00
2022-11-25T06:04:34.967Z,100.00
2022-11-25T06:07:07.483Z,100.00
2022-11-25T06:09:36.646Z,100.00
2022-11-25T06:12:06.040Z,100.00
2022-11-25T06:14:38.827Z,100.00
2022-11-25T06:17:07.762Z,100.00
2022-11-25T06:19:43.766Z,100.00
2022-11-25T06:22:14.163Z,100.00
2022-11-25T06:24:43.635Z,100.00
2022-11-25T06:27:13.691Z,100.00
2022-11-25T06:29:42.340Z,100.00
2022-11-25T06:32:13.812Z,100.00
2022-11-25T06:34:53.476Z,100.00
2022-11-25T06:37:40.266Z,100.00
2022-11-25T06:40:10.440Z,100.00
2022-11-25T06:42:40.544Z,100.00
2022-11-25T06:45:10.868Z,100.00
2022-11-25T06:47:39.734Z,100.00
2022-11-25T06:50:09.518Z,100.00
2022-11-25T06:52:39.903Z,100.00
2022-11-25T06:55:10.078Z,100.00
2022-11-25T06:57:39.040Z,100.00
2022-11-25T07:00:09.617Z,100.00
2022-11-25T07:02:44.111Z,100.00
2022-11-25T07:05:15.873Z,100.00
2022-11-25T07:07:46.235Z,100.00
2022-11-25T07:10:14.871Z,100.00
2022-11-25T07:12:43.769Z,100.00
2022-11-25T07:15:12.851Z,100.00
2022-11-25T07:17:41.690Z,100.00
2022-11-25T07:20:11.811Z,100.00
2022-11-25T07:22:40.854Z,100.00
2022-11-25T07:25:11.359Z,100.00
2022-11-25T07:27:40.332Z,100.00
2022-11-25T07:30:54.888Z,100.00
2022-11-25T07:33:00.794Z,100.00
2022-11-25T07:35:29.510Z,100.00
2022-11-25T07:37:58.410Z,100.00
2022-11-25T07:40:28.300Z,100.00
2022-11-25T07:42:57.213Z,100.00
2022-11-25T07:45:25.912Z,100.00
2022-11-25T07:48:07.466Z,100.00
2022-11-25T07:50:36.233Z,100.00
2022-11-25T07:53:05.115Z,100.00
2022-11-25T07:55:35.096Z,100.00
2022-11-25T07:58:04.151Z,100.00
2022-11-25T08:00:32.763Z,100.00
2022-11-25T08:03:01.858Z,100.00
2022-11-25T08:05:30.664Z,100.00
2022-11-25T08:07:59.657Z,100.00
2022-11-25T08:10:28.326Z,100.00
2022-11-25T08:12:58.537Z,100.00
2022-11-25T08:15:27.175Z,100.00
2022-11-25T08:17:56.168Z,100.00
2022-11-25T08:20:24.781Z,100.00
2022-11-25T08:22:55.283Z,100.00
2022-11-25T08:25:23.870Z,100.00
2022-11-25T08:27:52.738Z,100.00
2022-11-25T08:30:25.959Z,100.00
2022-11-25T08:32:55.179Z,100.00
2022-11-25T08:35:24.134Z,100.00
2022-11-25T08:37:53.437Z,100.00
2022-11-25T08:40:22.199Z,100.00
2022-11-25T08:42:51.120Z,100.00
2022-11-25T08:45:19.705Z,100.00
2022-11-25T08:47:49.909Z,100.00
2022-11-25T08:50:18.556Z,100.00
2022-11-25T08:52:47.508Z,100.00
2022-11-25T08:55:16.109Z,100.00
2022-11-25T08:57:44.987Z,100.00
2022-11-25T09:00:15.449Z,100.00
2022-11-25T09:02:44.988Z,100.00
2022-11-25T09:05:18.015Z,100.00
2022-11-25T09:07:47.207Z,100.00
2022-11-25T09:10:18.462Z,100.00
2022-11-25T09:12:47.390Z,100.00
2022-11-25T09:15:16.268Z,100.00
2022-11-25T09:17:45.145Z,100.00
2022-11-25T09:20:15.409Z,100.00
2022-11-25T09:22:44.503Z,100.00
2022-11-25T09:25:13.083Z,100.00
2022-11-25T09:27:42.006Z,100.00
2022-11-25T09:30:12.151Z,100.00
2022-11-25T09:32:41.136Z,100.00
2022-11-25T09:35:10.370Z,100.00
2022-11-25T09:37:40.604Z,100.00
2022-11-25T09:40:19.731Z,100.00
2022-11-25T09:43:16.125Z,100.00
2022-11-25T09:46:14.614Z,100.00
2022-11-25T09:49:00.857Z,100.00
2022-11-25T09:51:41.613Z,100.00
2022-11-25T09:54:22.602Z,100.00
2022-11-25T09:57:01.439Z,100.00
2022-11-25T09:59:43.926Z,100.00
2022-11-25T10:02:21.146Z,100.00
2022-11-25T10:04:58.881Z,100.00
2022-11-25T10:07:37.788Z,100.00
2022-11-25T10:10:23.348Z,100.00
2022-11-25T10:12:56.445Z,100.00
2022-11-25T10:15:31.217Z,100.00
2022-11-25T10:18:07.504Z,100.00
2022-11-25T10:20:42.121Z,100.00
2022-11-25T10:23:26.476Z,100.00
2022-11-25T10:26:03.873Z,100.00
2022-11-25T10:28:36.551Z,100.00
2022-11-25T10:31:17.534Z,100.00
2022-11-25T10:33:50.631Z,100.00
2022-11-25T10:36:24.901Z,100.00
2022-11-25T10:39:02.655Z,100.00
2022-11-25T10:41:43.383Z,100.00
2022-11-25T10:44:25.316Z,100.00
2022-11-25T10:47:26.634Z,100.00
2022-11-25T10:50:16.375Z,100.00
2022-11-25T10:52:57.063Z,100.00
2022-11-25T10:55:28.193Z,100.00
2022-11-25T10:58:00.653Z,100.00
2022-11-25T11:00:34.333Z,100.00
2022-11-25T11:03:16.775Z,100.00
2022-11-25T11:05:49.206Z,100.00
2022-11-25T11:08:23.085Z,100.00
2022-11-25T11:11:20.588Z,100.00
2022-11-25T11:14:00.054Z,100.00
2022-11-25T11:16:36.244Z,100.00
2022-11-25T11:19:06.427Z,100.00
2022-11-25T11:21:38.956Z,100.00
2022-11-25T11:24:28.162Z,100.00
2022-11-25T11:27:16.313Z,100.00
2022-11-25T11:29:46.625Z,100.00
2022-11-25T11:32:25.808Z,100.00
2022-11-25T11:35:07.764Z,100.00
2022-11-25T11:37:44.686Z,100.00
2022-11-25T11:40:31.908Z,100.00
2022-11-25T11:43:30.862Z,100.00
2022-11-25T11:46:19.726Z,100.00
2022-11-25T11:49:06.803Z,100.00
2022-11-25T11:51:50.740Z,100.00
2022-11-25T11:54:31.740Z,100.00
2022-11-25T11:57:08.347Z,100.00
2022-11-25T11:59:53.612Z,100.00
2022-11-25T12:02:43.670Z,100.00
2022-11-25T12:05:22.052Z,100.00
2022-11-25T12:08:06.357Z,100.00
2022-11-25T12:10:42.129Z,100.00
2022-11-25T12:13:23.757Z,100.00
2022-11-25T12:15:59.003Z,100.00
2022-11-25T12:18:48.553Z,100.00
2022-11-25T12:21:41.606Z,100.00
2022-11-25T12:24:22.683Z,100.00
2022-11-25T12:26:59.016Z,100.00
2022-11-25T12:29:39.452Z,100.00
2022-11-25T12:32:41.945Z,100.00
2022-11-25T12:35:23.696Z,100.00
2022-11-25T12:38:03.309Z,100.00
2022-11-25T12:40:42.411Z,100.00
2022-11-25T12:43:35.231Z,100.00
2022-11-25T12:46:23.168Z,100.00
2022-11-25T12:48:54.503Z,100.00
2022-11-25T12:51:47.365Z,100.00
2022-11-25T12:54:43.084Z,100.00
2022-11-25T12:57:51.130Z,100.00
2022-11-25T13:00:42.225Z,100.00
2022-11-25T13:04:02.035Z,100.00
2022-11-25T13:07:11.209Z,100.00
2022-11-25T13:10:11.989Z,100.00
2022-11-25T13:12:55.144Z,100.00
2022-11-25T13:15:29.189Z,100.00
2022-11-25T13:18:02.974Z,100.00
2022-11-25T13:20:48.342Z,100.00
2022-11-25T13:23:48.655Z,100.00
2022-11-25T13:26:50.801Z,100.00
2022-11-25T13:30:00.787Z,100.00
2022-11-25T13:32:40.573Z,100.00
2022-11-25T13:35:35.693Z,100.00
2022-11-25T13:38:39.175Z,100.00
2022-11-25T13:41:37.238Z,100.00
2022-11-25T13:44:19.692Z,100.00
2022-11-25T13:46:52.638Z,100.00
2022-11-25T13:49:27.887Z,100.00
2022-11-25T13:51:59.929Z,100.00
2022-11-25T13:54:38.368Z,100.00
2022-11-25T13:57:28.740Z,100.00
2022-11-25T14:00:01.733Z,100.00
2022-11-25T14:02:45.955Z,100.00
2022-11-25T14:05:58.357Z,100.00
2022-11-25T14:08:40.233Z,100.00
2022-11-25T14:11:47.814Z,100.00
2022-11-25T14:15:02.009Z,100.00
2022-11-25T14:18:10.920Z,100.00
2022-11-25T14:20:50.093Z,100.00
2022-11-25T14:23:57.516Z,100.00
2022-11-25T14:26:49.169Z,100.00
2022-11-25T14:29:23.024Z,100.00
2022-11-25T14:31:59.141Z,100.00
2022-11-25T14:34:35.954Z,100.00
2022-11-25T14:37:14.504Z,100.00
2022-11-25T14:39:51.476Z,100.00
2022-11-25T14:42:27.308Z,100.00
2022-11-25T14:44:58.464Z,100.00
2022-11-25T14:47:31.357Z,100.00
2022-11-25T14:52:51.905Z,100.00
2022-11-25T14:55:30.799Z,100.00
2022-11-25T14:58:00.956Z,100.00
2022-11-25T15:00:30.040Z,100.00
2022-11-25T15:03:01.770Z,100.00
2022-11-25T15:05:35.846Z,100.00
2022-11-25T15:08:14.366Z,100.00
2022-11-25T15:10:52.400Z,100.00
2022-11-25T15:13:34.831Z,100.00
2022-11-25T15:16:14.175Z,100.00
2022-11-25T15:18:53.008Z,100.00
2022-11-25T15:21:29.128Z,100.00
2022-11-25T15:23:58.602Z,100.00
2022-11-25T15:26:33.141Z,100.00
2022-11-25T15:29:12.255Z,100.00
2022-11-25T15:31:42.314Z,100.00
2022-11-25T15:34:15.848Z,100.00
2022-11-25T15:36:45.839Z,100.00
2022-11-25T15:39:25.839Z,100.00
2022-11-25T15:41:58.658Z,100.00
2022-11-25T15:44:34.319Z,100.00
2022-11-25T15:47:08.090Z,100.00
2022-11-25T15:49:37.862Z,100.00
2022-11-25T15:52:18.672Z,100.00
2022-11-25T15:54:51.258Z,100.00
2022-11-25T15:57:27.953Z,100.00
2022-11-25T16:00:18.145Z,100.00
2022-11-25T16:02:55.566Z,100.00
2022-11-25T16:05:35.550Z,100.00
2022-11-25T16:08:31.154Z,100.00
2022-11-25T16:11:11.931Z,100.00
2022-11-25T16:13:41.356Z,100.00
2022-11-25T16:16:28.970Z,100.00
2022-11-25T16:19:14.799Z,100.00
2022-11-25T16:21:55.795Z,100.00
2022-11-25T16:24:47.647Z,100.00
2022-11-25T16:27:21.336Z,100.00
2022-11-25T16:29:54.417Z,100.00
2022-11-25T16:32:27.424Z,100.00
2022-11-25T16:34:57.742Z,100.00
2022-11-25T16:37:26.423Z,100.00
2022-11-25T16:39:55.374Z,100.00
2022-11-25T16:42:23.971Z,100.00
2022-11-25T16:44:53.741Z,100.00
2022-11-25T16:47:26.220Z,100.00
2022-11-25T16:49:55.126Z,100.00
2022-11-25T16:52:23.796Z,100.00
2022-11-25T16:54:52.645Z,100.00
2022-11-25T16:57:22.977Z,100.00
2022-11-25T16:59:58.688Z,100.00
2022-11-25T17:02:29.132Z,100.00
2022-11-25T17:05:01.818Z,100.00
2022-11-25T17:07:33.533Z,100.00
2022-11-25T17:10:02.993Z,100.00
2022-11-25T17:12:36.076Z,100.00
2022-11-25T17:15:13.065Z,100.00
2022-11-25T17:17:44.723Z,100.00
2022-11-25T17:20:17.195Z,100.00
2022-11-25T17:22:46.346Z,100.00
2022-11-25T17:25:15.711Z,100.00
2022-11-25T17:27:46.200Z,100.00
2022-11-25T17:30:21.192Z,100.00
2022-11-25T17:32:59.513Z,100.00
2022-11-25T17:35:28.405Z,100.00
2022-11-25T17:38:00.802Z,100.00
2022-11-25T17:40:29.855Z,100.00
2022-11-25T17:42:58.626Z,100.00
2022-11-25T17:45:27.601Z,100.00
2022-11-25T17:47:57.580Z,100.00
2022-11-25T17:50:27.595Z,100.00
2022-11-25T17:52:56.451Z,100.00
2022-11-25T17:55:25.562Z,100.00
2022-11-25T17:57:54.325Z,100.00
2022-11-25T18:00:24.153Z,100.00
2022-11-25T18:02:52.850Z,100.00
2022-11-25T18:05:28.529Z,100.00
2022-11-25T18:07:57.218Z,100.00
2022-11-25T18:10:28.769Z,100.00
2022-11-25T18:12:58.977Z,100.00
2022-11-25T18:15:31.340Z,100.00
2022-11-25T18:18:05.665Z,100.00
2022-11-25T18:20:36.088Z,100.00
2022-11-25T18:23:04.689Z,100.00
2022-11-25T18:25:35.251Z,100.00
2022-11-25T18:28:06.267Z,100.00
2022-11-25T18:30:39.217Z,100.00
2022-11-25T18:33:13.555Z,100.00
2022-11-25T18:35:46.163Z,100.00
2022-11-25T18:38:14.743Z,100.00
2022-11-25T18:40:51.849Z,100.00
2022-11-25T18:43:27.785Z,100.00
2022-11-25T18:45:57.334Z,100.00
2022-11-25T18:48:27.414Z,100.00
2022-11-25T18:50:57.835Z,100.00
2022-11-25T18:53:26.499Z,100.00
2022-11-25T18:55:55.679Z,100.00
2022-11-25T18:58:28.044Z,100.00
2022-11-25T19:01:05.019Z,100.00
2022-11-25T19:03:33.809Z,100.00
2022-11-25T19:06:04.281Z,100.00
2022-11-25T19:08:33.058Z,100.00
2022-11-25T19:11:01.984Z,100.00
2022-11-25T19:13:35.951Z,100.00
2022-11-25T19:16:09.461Z,100.00
2022-11-25T19:18:38.253Z,100.00
2022-11-25T19:21:11.875Z,100.00
2022-11-25T19:23:41.620Z,100.00
2022-11-25T19:26:16.432Z,100.00
2022-11-25T19:28:49.661Z,100.00
2022-11-25T19:31:21.522Z,100.00
2022-11-25T19:33:52.464Z,100.00
2022-11-25T19:36:27.585Z,100.00
2022-11-25T19:38:56.302Z,100.00
2022-11-25T19:41:25.301Z,100.00
2022-11-25T19:43:53.932Z,100.00
2022-11-25T19:46:33.048Z,100.00
2022-11-25T19:49:07.195Z,100.00
2022-11-25T19:51:37.582Z,100.00
2022-11-25T19:54:10.444Z,100.00
2022-11-25T19:56:40.390Z,100.00
2022-11-25T19:59:10.553Z,100.00
2022-11-25T20:01:44.341Z,100.00
2022-11-25T20:04:21.868Z,100.00
2022-11-25T20:06:52.450Z,100.00
2022-11-25T20:09:21.049Z,100.00
2022-11-25T20:11:54.316Z,100.00
2022-11-25T20:14:22.930Z,100.00
2022-11-25T20:16:52.264Z,100.00
2022-11-25T20:19:21.367Z,100.00
2022-11-25T20:21:51.707Z,100.00
2022-11-25T20:24:21.985Z,100.00
2022-11-25T20:26:51.807Z,100.00
2022-11-25T20:29:27.494Z,100.00
2022-11-25T20:31:59.784Z,100.00
2022-11-25T20:34:28.516Z,100.00
2022-11-25T20:36:58.747Z,100.00
2022-11-25T20:39:27.376Z,100.00
2022-11-25T20:41:56.585Z,100.00
2022-11-25T20:44:25.288Z,100.00
2022-11-25T20:46:54.170Z,100.00
2022-11-25T20:49:27.627Z,100.00
2022-11-25T20:51:58.585Z,100.00
2022-11-25T20:54:27.390Z,100.00
2022-11-25T20:56:57.317Z,100.00
2022-11-25T20:59:26.411Z,100.00
2022-11-25T21:01:55.791Z,100.00
2022-11-25T21:04:24.691Z,100.00
2022-11-25T21:06:53.535Z,100.00
2022-11-25T21:09:28.869Z,100.00
2022-11-25T21:11:57.800Z,100.00
2022-11-25T21:14:26.685Z,100.00
2022-11-25T21:16:55.545Z,100.00
2022-11-25T21:19:24.154Z,100.00
2022-11-25T21:21:53.495Z,100.00
2022-11-25T21:24:31.751Z,100.00
2022-11-25T21:27:03.659Z,100.00
2022-11-25T21:29:33.296Z,100.00
2022-11-25T21:32:02.351Z,100.00
2022-11-25T21:34:31.006Z,100.00
2022-11-25T21:37:00.179Z,100.00
2022-11-25T21:39:33.509Z,100.00
2022-11-25T21:42:07.351Z,100.00
2022-11-25T21:44:40.666Z,100.00
2022-11-25T21:47:15.161Z,100.00
2022-11-25T21:49:44.246Z,100.00
2022-11-25T21:52:13.524Z,100.00
2022-11-25T21:54:43.877Z,100.00
2022-11-25T21:57:17.184Z,100.00
2022-11-25T21:59:47.965Z,100.00
2022-11-25T22:02:23.621Z,100.00
2022-11-25T22:04:53.105Z,100.00
2022-11-25T22:07:26.316Z,100.00
2022-11-25T22:09:59.318Z,100.00
2022-11-25T22:12:32.022Z,100.00
2022-11-25T22:15:03.602Z,100.00
2022-11-25T22:17:32.605Z,100.00
2022-11-25T22:20:01.340Z,100.00
2022-11-25T22:22:30.393Z,100.00
2022-11-25T22:25:00.323Z,100.00
2022-11-25T22:27:36.272Z,100.00
2022-11-25T22:30:06.819Z,100.00
2022-11-25T22:32:35.784Z,100.00
2022-11-25T22:35:13.841Z,100.00
2022-11-25T22:37:43.378Z,100.00
2022-11-25T22:40:15.159Z,100.00
2022-11-25T22:42:48.266Z,100.00
2022-11-25T22:45:32.916Z,100.00
2022-11-25T22:48:06.685Z,100.00
2022-11-25T22:50:36.607Z,100.00
2022-11-25T22:53:14.651Z,100.00
2022-11-25T22:55:46.263Z,100.00
2022-11-25T22:58:15.996Z,100.00
2022-11-25T23:00:48.547Z,100.00
2022-11-25T23:03:22.148Z,100.00
2022-11-25T23:05:52.900Z,100.00
2022-11-25T23:08:24.184Z,100.00
2022-11-25T23:10:55.928Z,100.00
2022-11-25T23:13:25.683Z,100.00
2022-11-25T23:15:58.111Z,100.00
2022-11-25T23:18:35.381Z,100.00
2022-11-25T23:21:07.342Z,100.00
2022-11-25T23:23:36.214Z,100.00
2022-11-25T23:26:11.226Z,100.00
2022-11-25T23:28:40.205Z,100.00
2022-11-25T23:31:13.973Z,100.00
2022-11-25T23:33:47.292Z,100.00
2022-11-25T23:36:22.992Z,100.00
2022-11-25T23:38:56.409Z,100.00
2022-11-25T23:41:30.091Z,100.00
2022-11-25T23:44:06.905Z,100.00
2022-11-25T23:46:38.382Z,100.00
2022-11-25T23:49:15.627Z,100.00
2022-11-25T23:51:44.208Z,100.00
2022-11-25T23:54:16.774Z,100.00
2022-11-25T23:56:46.803Z,100.00
2022-11-25T23:59:17.827Z,100.00
